Time;durP1;ratioP1;P1;durP2;ratioP2;P2;SDS_P1;SDS_P2;PMS_P1;PMS_P2;Temp;Humidity;BMP_temperature;BMP_pressure;BME280_temperature;BME280_humidity;BME280_pressure;Samples;Min_cycle;Max_cycle;Signal;HPM_P1;HPM_P2
2023/10/07 00:00:48;;;;;;;8.38;3.42;;;;;;;;;;6266006;28;20091;-60
2023/10/07 00:04:09;;;;;;;7.43;3.22;;;;;;;;;;6251132;28;20041;-60
2023/10/07 00:07:11;;;;;;;9.82;3.50;;;;;;;;;;6265441;28;20071;-60
2023/10/07 00:10:19;;;;;;;10.73;3.70;;;;;;;;;;6265855;28;20102;-60
2023/10/07 00:13:20;;;;;;;9.02;3.45;;;;;;;;;;6264986;28;20041;-60
2023/10/07 00:16:23;;;;;;;11.25;3.60;;;;;;;;;;6264740;28;20133;-60
2023/10/07 00:19:24;;;;;;;14.13;3.70;;;;;;;;;;6264850;28;20048;-60
2023/10/07 00:22:26;;;;;;;10.80;4.07;;;;;;;;;;6265027;28;20056;-61
2023/10/07 00:25:30;;;;;;;10.95;3.67;;;;;;;;;;6264961;28;20460;-61
2023/10/07 00:31:33;;;;;;;13.05;3.90;;;;;;;;;;6265258;28;20104;-60
2023/10/07 00:34:38;;;;;;;10.32;3.63;;;;;;;;;;6264440;28;20068;-61
2023/10/07 00:37:43;;;;;;;9.93;4.20;;;;;;;;;;6265169;28;20146;-60
2023/10/07 00:40:54;;;;;;;10.80;4.20;;;;;;;;;;6265874;28;20132;-61
2023/10/07 00:44:00;;;;;;;12.05;4.10;;;;;;;;;;6265031;28;20045;-62
2023/10/07 00:47:12;;;;;;;11.93;4.65;;;;;;;;;;6255466;28;20125;-60
2023/10/07 00:50:12;;;;;;;;;;;;;;;;;;6263832;28;20033;-60
2023/10/07 00:53:13;;;;;;;12.10;4.18;;;;;;;;;;6264729;28;19921;-62
2023/10/07 00:56:15;;;;;;;11.63;3.97;;;;;;;;;;6263168;28;20052;-61
2023/10/07 00:59:18;;;;;;;14.50;4.95;;;;;;;;;;6262869;28;20041;-61
2023/10/07 01:02:29;;;;;;;10.00;3.75;;;;;;;;;;6264177;28;20059;-61
2023/10/07 01:05:33;;;;;;;13.93;4.72;;;;;;;;;;6264512;28;20052;-61
2023/10/07 01:08:36;;;;;;;11.98;4.43;;;;;;;;;;6263915;28;20090;-61
2023/10/07 01:11:39;;;;;;;14.13;4.18;;;;;;;;;;6263421;28;20052;-61
2023/10/07 01:14:47;;;;;;;14.55;4.75;;;;;;;;;;6266535;28;20041;-60
2023/10/07 01:17:55;;;;;;;15.00;4.40;;;;;;;;;;6264218;28;20048;-61
2023/10/07 01:23:58;;;;;;;14.25;5.15;;;;;;;;;;6263786;28;20205;-60
2023/10/07 01:27:05;;;;;;;;;;;;;;;;;;6264762;28;20048;-60
2023/10/07 01:30:13;;;;;;;10.98;4.13;;;;;;;;;;6263090;28;19994;-60
2023/10/07 01:36:25;;;;;;;12.32;4.10;;;;;;;;;;6264652;28;20487;-61
2023/10/07 01:39:25;;;;;;;12.65;4.47;;;;;;;;;;6263314;28;20488;-61
2023/10/07 01:42:36;;;;;;;12.30;4.13;;;;;;;;;;6264274;28;20041;-60
2023/10/07 01:45:39;;;;;;;11.75;3.90;;;;;;;;;;6263710;28;20164;-60
2023/10/07 01:48:49;;;;;;;12.57;4.45;;;;;;;;;;6260582;28;20472;-60
2023/10/07 01:51:52;;;;;;;12.98;4.50;;;;;;;;;;6261662;28;20478;-60
2023/10/07 01:54:54;;;;;;;13.68;4.18;;;;;;;;;;6263843;28;20164;-60
2023/10/07 01:57:55;;;;;;;13.48;4.43;;;;;;;;;;6263795;28;20041;-59
2023/10/07 02:00:59;;;;;;;10.02;4.15;;;;;;;;;;6263138;28;20518;-60
2023/10/07 02:04:03;;;;;;;14.10;4.35;;;;;;;;;;6263730;28;20044;-59
2023/10/07 02:07:08;;;;;;;11.45;4.03;;;;;;;;;;6265200;28;20037;-60
2023/10/07 02:10:22;;;;;;;12.50;4.05;;;;;;;;;;6268429;28;20053;-60
2023/10/07 02:13:27;;;;;;;13.50;4.32;;;;;;;;;;6267507;28;20522;-61
2023/10/07 02:16:28;;;;;;;16.73;4.13;;;;;;;;;;6266908;28;20060;-62
2023/10/07 02:19:29;;;;;;;9.88;3.95;;;;;;;;;;6268358;28;20852;-60
2023/10/07 02:22:30;;;;;;;14.45;4.40;;;;;;;;;;6267686;28;20051;-60
2023/10/07 02:25:31;;;;;;;12.65;4.20;;;;;;;;;;6268140;28;20049;-60
2023/10/07 02:28:34;;;;;;;12.15;4.30;;;;;;;;;;6268262;28;20098;-60
2023/10/07 02:31:43;;;;;;;;;;;;;;;;;;6268225;28;20053;-60
2023/10/07 02:34:57;;;;;;;10.13;4.07;;;;;;;;;;6266347;28;19921;-60
2023/10/07 02:38:02;;;;;;;9.90;4.38;;;;;;;;;;6266395;28;20063;-60
2023/10/07 02:41:08;;;;;;;11.90;4.28;;;;;;;;;;6268488;28;20059;-60
2023/10/07 02:44:16;;;;;;;13.43;4.13;;;;;;;;;;6267280;28;20087;-59
2023/10/07 02:47:18;;;;;;;13.27;4.82;;;;;;;;;;6264082;28;20041;-60
2023/10/07 02:50:19;;;;;;;14.30;4.40;;;;;;;;;;6261314;28;20183;-61
2023/10/07 02:53:20;;;;;;;12.32;4.60;;;;;;;;;;6266688;28;20048;-60
2023/10/07 02:56:22;;;;;;;17.77;4.80;;;;;;;;;;6269030;28;20052;-60
2023/10/07 02:59:31;;;;;;;14.43;4.68;;;;;;;;;;6265958;28;20055;-61
2023/10/07 03:02:48;;;;;;;12.20;4.60;;;;;;;;;;6268811;28;20053;-61
2023/10/07 03:05:58;;;;;;;14.38;4.88;;;;;;;;;;6268541;28;20514;-60
2023/10/07 03:09:09;;;;;;;13.68;4.50;;;;;;;;;;6268657;28;20052;-60
2023/10/07 03:12:13;;;;;;;12.25;4.57;;;;;;;;;;6268273;28;20053;-60
2023/10/07 03:18:38;;;;;;;13.70;4.38;;;;;;;;;;6264729;28;20484;-60
2023/10/07 03:24:42;;;;;;;15.20;4.95;;;;;;;;;;6267219;28;20182;-60
2023/10/07 03:27:49;;;;;;;11.38;4.43;;;;;;;;;;6266492;28;20045;-60
2023/10/07 03:30:55;;;;;;;12.23;4.88;;;;;;;;;;6254677;28;20041;-60
2023/10/07 03:33:58;;;;;;;14.35;4.95;;;;;;;;;;6267772;28;20483;-61
2023/10/07 03:40:25;;;;;;;17.75;5.32;;;;;;;;;;6254058;28;20051;-60
2023/10/07 03:43:26;;;;;;;14.70;4.80;;;;;;;;;;6266090;28;20052;-60
2023/10/07 03:46:27;;;;;;;15.10;4.88;;;;;;;;;;6265221;28;20948;-60
2023/10/07 03:49:33;;;;;;;11.73;4.60;;;;;;;;;;6257708;28;20113;-60
2023/10/07 03:52:37;;;;;;;15.02;5.22;;;;;;;;;;6267382;28;20049;-60
2023/10/07 03:55:42;;;;;;;12.57;4.38;;;;;;;;;;6259839;28;20053;-60
2023/10/07 03:58:43;;;;;;;13.27;5.07;;;;;;;;;;6266234;28;20119;-60
2023/10/07 04:01:44;;;;;;;11.15;4.35;;;;;;;;;;6265025;28;20555;-60
2023/10/07 04:04:45;;;;;;;14.70;4.23;;;;;;;;;;6266000;28;20041;-61
2023/10/07 04:07:46;;;;;;;11.55;4.20;;;;;;;;;;6265881;28;20482;-60
2023/10/07 04:10:47;;;;;;;15.02;4.97;;;;;;;;;;6265645;28;20056;-60
2023/10/07 04:13:53;;;;;;;12.10;4.97;;;;;;;;;;6264467;28;20041;-61
2023/10/07 04:16:54;;;;;;;13.13;4.65;;;;;;;;;;6264303;28;20045;-60
2023/10/07 04:19:58;;;;;;;16.60;5.40;;;;;;;;;;6263944;28;20041;-60
2023/10/07 04:23:00;;;;;;;18.20;4.65;;;;;;;;;;6263697;28;20033;-60
2023/10/07 04:26:10;;;;;;;;;;;;;;;;;;6266489;28;20043;-60
2023/10/07 04:29:16;;;;;;;11.38;3.97;;;;;;;;;;6253711;28;19921;-60
2023/10/07 04:32:22;;;;;;;13.50;4.53;;;;;;;;;;6264371;28;20041;-60
2023/10/07 04:35:26;;;;;;;15.88;4.97;;;;;;;;;;6264329;28;20428;-60
2023/10/07 04:47:46;;;;;;;13.25;5.10;;;;;;;;;;6258012;28;20535;-60
2023/10/07 04:51:03;;;;;;;12.68;4.70;;;;;;;;;;6266201;28;20094;-60
2023/10/07 04:54:04;;;;;;;14.18;4.55;;;;;;;;;;6264646;28;20048;-60
2023/10/07 04:57:10;;;;;;;10.30;4.40;;;;;;;;;;6260204;28;20468;-60
2023/10/07 05:00:34;;;;;;;14.07;4.53;;;;;;;;;;6263559;28;20053;-60
2023/10/07 05:03:36;;;;;;;12.05;4.75;;;;;;;;;;6264422;28;20147;-62
2023/10/07 05:06:37;;;;;;;12.33;4.50;;;;;;;;;;6263684;28;20140;-60
2023/10/07 05:09:38;;;;;;;12.10;4.40;;;;;;;;;;6265064;28;20305;-60
2023/10/07 05:12:39;;;;;;;12.73;4.75;;;;;;;;;;6264617;28;20384;-60
2023/10/07 05:15:41;;;;;;;11.02;4.63;;;;;;;;;;6264192;28;20049;-61
2023/10/07 05:18:42;;;;;;;11.82;4.38;;;;;;;;;;6262296;28;20049;-60
2023/10/07 05:21:44;;;;;;;14.20;4.70;;;;;;;;;;6263026;28;20073;-60
2023/10/07 05:24:46;;;;;;;15.85;5.15;;;;;;;;;;6265626;28;20056;-60
2023/10/07 05:27:50;;;;;;;13.25;5.10;;;;;;;;;;6261102;28;20595;-60
2023/10/07 05:30:51;;;;;;;14.30;5.28;;;;;;;;;;6261695;28;20492;-60
2023/10/07 05:33:53;;;;;;;;;;;;;;;;;;6263451;28;20056;-60
2023/10/07 05:37:01;;;;;;;17.75;5.30;;;;;;;;;;6262677;28;20023;-60
2023/10/07 05:40:03;;;;;;;13.05;4.97;;;;;;;;;;6262142;28;20453;-59
2023/10/07 05:43:08;;;;;;;15.35;5.03;;;;;;;;;;6267389;28;20103;-60
2023/10/07 05:46:10;;;;;;;12.43;5.05;;;;;;;;;;6268887;28;20124;-59
2023/10/07 05:49:10;;;;;;;13.73;4.60;;;;;;;;;;6266219;28;20045;-60
2023/10/07 05:52:11;;;;;;;13.35;5.65;;;;;;;;;;6268575;28;20399;-60
2023/10/07 05:55:11;;;;;;;11.77;5.30;;;;;;;;;;6269145;28;20041;-60
2023/10/07 05:58:12;;;;;;;14.77;5.40;;;;;;;;;;6267819;28;20068;-59
2023/10/07 06:01:14;;;;;;;19.08;5.05;;;;;;;;;;6268619;28;20115;-60
2023/10/07 06:04:15;;;;;;;14.20;5.80;;;;;;;;;;6263299;28;20487;-60
2023/10/07 06:07:15;;;;;;;12.38;5.05;;;;;;;;;;6253895;28;20048;-61
2023/10/07 06:10:16;;;;;;;17.23;5.85;;;;;;;;;;6267958;28;20049;-60
2023/10/07 06:13:16;;;;;;;15.90;5.30;;;;;;;;;;6268510;28;20052;-60
2023/10/07 06:16:17;;;;;;;16.00;5.88;;;;;;;;;;6267071;28;20045;-60
2023/10/07 06:19:18;;;;;;;15.52;5.53;;;;;;;;;;6266272;28;20501;-59
2023/10/07 06:22:22;;;;;;;17.58;5.45;;;;;;;;;;6264323;28;20419;-61
2023/10/07 06:25:30;;;;;;;11.77;4.90;;;;;;;;;;6265731;28;20132;-60
2023/10/07 06:28:35;;;;;;;14.52;5.38;;;;;;;;;;6264782;28;20040;-61
2023/10/07 06:31:36;;;;;;;15.90;5.35;;;;;;;;;;6265228;28;20056;-60
2023/10/07 06:34:41;;;;;;;18.33;5.80;;;;;;;;;;6263815;28;20079;-60
2023/10/07 06:37:42;;;;;;;14.32;5.30;;;;;;;;;;6264203;28;20333;-60
2023/10/07 06:40:43;;;;;;;14.43;5.57;;;;;;;;;;6266417;28;20419;-61
2023/10/07 06:43:50;;;;;;;16.80;5.07;;;;;;;;;;6268083;28;20404;-60
2023/10/07 06:46:56;;;;;;;19.92;5.47;;;;;;;;;;6267645;28;20049;-60
2023/10/07 06:49:58;;;;;;;20.80;6.15;;;;;;;;;;6262644;28;20057;-61
2023/10/07 06:52:59;;;;;;;13.73;5.38;;;;;;;;;;6263733;28;20041;-60
2023/10/07 06:56:01;;;;;;;13.55;5.10;;;;;;;;;;6283064;28;20049;-61
2023/10/07 06:59:03;;;;;;;14.27;5.38;;;;;;;;;;6265906;28;20173;-63
2023/10/07 07:02:06;;;;;;;15.93;5.18;;;;;;;;;;6259629;28;20144;-61
2023/10/07 07:05:13;;;;;;;16.33;5.00;;;;;;;;;;6263607;28;20053;-60
2023/10/07 07:08:14;;;;;;;12.60;5.35;;;;;;;;;;6262377;28;20579;-61
2023/10/07 07:11:16;;;;;;;16.83;5.85;;;;;;;;;;6258810;28;20148;-60
2023/10/07 07:14:17;;;;;;;16.17;5.55;;;;;;;;;;6260754;28;20484;-60
2023/10/07 07:20:54;;;;;;;14.05;4.97;;;;;;;;;;6259461;28;20504;-60
2023/10/07 07:23:55;;;;;;;12.63;4.95;;;;;;;;;;6268002;28;20049;-61
2023/10/07 07:26:56;;;;;;;12.48;5.38;;;;;;;;;;6243481;28;20103;-61
2023/10/07 07:30:00;;;;;;;12.95;5.18;;;;;;;;;;6246682;28;20481;-60
2023/10/07 07:33:07;;;;;;;16.23;5.35;;;;;;;;;;6263546;28;20514;-60
2023/10/07 07:39:30;;;;;;;12.88;5.25;;;;;;;;;;6244654;28;20084;-61
2023/10/07 07:42:32;;;;;;;13.80;5.82;;;;;;;;;;6244778;28;20049;-60
2023/10/07 07:45:35;;;;;;;14.55;5.18;;;;;;;;;;6244020;28;20060;-60
2023/10/07 07:48:38;;;;;;;12.60;5.05;;;;;;;;;;6245617;28;20170;-60
2023/10/07 07:51:39;;;;;;;;;;;;;;;;;;6245259;28;20528;-60
2023/10/07 07:54:40;;;;;;;15.30;5.25;;;;;;;;;;6243202;28;19925;-60
2023/10/07 07:57:44;;;;;;;12.73;5.32;;;;;;;;;;6244654;28;20045;-60
2023/10/07 08:00:45;;;;;;;15.43;5.85;;;;;;;;;;6243526;28;20122;-60
2023/10/07 08:03:47;;;;;;;13.82;4.85;;;;;;;;;;6242332;28;20041;-60
2023/10/07 08:06:48;;;;;;;13.43;4.93;;;;;;;;;;6241796;28;20045;-60
2023/10/07 08:09:52;;;;;;;14.65;5.25;;;;;;;;;;6243318;28;20408;-60
2023/10/07 08:12:52;;;;;;;13.90;4.68;;;;;;;;;;6246991;28;20469;-60
2023/10/07 08:15:56;;;;;;;17.60;5.38;;;;;;;;;;6254113;28;20041;-60
2023/10/07 08:18:58;;;;;;;11.93;4.85;;;;;;;;;;6257439;28;20127;-60
2023/10/07 08:22:02;;;;;;;14.20;5.70;;;;;;;;;;6252959;28;20488;-60
2023/10/07 08:25:06;;;;;;;12.57;4.97;;;;;;;;;;6258156;28;20773;-59
2023/10/07 08:28:19;;;;;;;17.58;5.78;;;;;;;;;;6263034;28;20039;-60
2023/10/07 08:31:20;;;;;;;11.65;4.80;;;;;;;;;;6246581;28;20042;-60
2023/10/07 08:34:23;;;;;;;12.77;4.82;;;;;;;;;;6257797;28;20044;-60
2023/10/07 08:37:24;;;;;;;13.18;5.32;;;;;;;;;;6254302;28;20163;-60
2023/10/07 08:40:28;;;;;;;15.25;5.05;;;;;;;;;;6262173;28;20503;-60
2023/10/07 08:43:37;;;;;;;17.55;5.18;;;;;;;;;;6256195;28;20051;-60
2023/10/07 08:46:39;;;;;;;11.32;4.45;;;;;;;;;;6264126;28;20076;-61
2023/10/07 08:49:43;;;;;;;12.13;5.03;;;;;;;;;;6263250;28;20049;-60
2023/10/07 08:52:44;;;;;;;11.52;4.63;;;;;;;;;;6243049;28;20076;-59
2023/10/07 08:55:51;;;;;;;17.43;4.83;;;;;;;;;;6241523;28;20153;-60
2023/10/07 08:58:51;;;;;;;13.80;4.75;;;;;;;;;;6254797;28;20139;-60
2023/10/07 09:02:00;;;;;;;14.15;5.10;;;;;;;;;;6258384;28;20473;-60
2023/10/07 09:05:09;;;;;;;13.35;4.78;;;;;;;;;;6246584;28;20041;-61
2023/10/07 09:08:11;;;;;;;13.30;4.63;;;;;;;;;;6243806;28;20041;-59
2023/10/07 09:11:19;;;;;;;10.85;5.30;;;;;;;;;;6256038;28;20487;-62
2023/10/07 09:14:20;;;;;;;12.70;4.72;;;;;;;;;;6255547;28;20044;-60
2023/10/07 09:17:22;;;;;;;11.77;5.00;;;;;;;;;;6256521;28;20606;-60
2023/10/07 09:20:32;;;;;;;;;;;;;;;;;;6250793;28;20063;-64
2023/10/07 09:23:59;;;;;;;16.17;4.88;;;;;;;;;;6254694;28;19929;-60
2023/10/07 09:26:56;;;;;;;12.15;4.68;;;;;;;;;;6256955;28;20068;-59
2023/10/07 09:30:06;;;;;;;10.30;4.90;;;;;;;;;;6254300;28;20048;-60
2023/10/07 09:33:18;;;;;;;13.70;5.28;;;;;;;;;;6255787;28;20049;-63
2023/10/07 09:39:33;;;;;;;11.65;4.57;;;;;;;;;;6251522;28;20514;-55
2023/10/07 09:42:37;;;;;;;14.40;4.95;;;;;;;;;;6253048;28;20161;-60
2023/10/07 09:45:38;;;;;;;13.40;5.40;;;;;;;;;;6263129;28;20067;-61
2023/10/07 09:48:42;;;;;;;13.20;4.75;;;;;;;;;;6263052;28;20045;-61
2023/10/07 09:51:47;;;;;;;12.77;4.72;;;;;;;;;;6243344;28;20087;-60
2023/10/07 09:55:20;;;;;;;13.23;5.57;;;;;;;;;;6238511;28;20493;-61
2023/10/07 09:58:24;;;;;;;14.25;5.22;;;;;;;;;;6239960;28;20051;-60
2023/10/07 10:01:38;;;;;;;11.35;4.50;;;;;;;;;;6238970;28;20061;-62
2023/10/07 10:05:00;;;;;;;14.30;5.32;;;;;;;;;;6236072;28;20132;-60
2023/10/07 10:08:35;;;;;;;13.90;4.63;;;;;;;;;;6235277;28;20477;-61
2023/10/07 10:15:07;;;;;;;13.30;5.10;;;;;;;;;;6241416;28;20148;-60
2023/10/07 10:21:30;;;;;;;12.75;5.13;;;;;;;;;;6240952;28;20378;-61
2023/10/07 10:24:36;;;;;;;15.25;4.95;;;;;;;;;;6241874;28;20053;-61
2023/10/07 10:27:44;;;;;;;14.82;5.00;;;;;;;;;;6243592;28;20049;-60
2023/10/07 10:30:53;;;;;;;12.88;5.20;;;;;;;;;;6258810;28;20041;-60
2023/10/07 10:33:53;;;;;;;12.18;5.05;;;;;;;;;;6243229;28;20037;-60
2023/10/07 10:36:59;;;;;;;14.37;5.33;;;;;;;;;;6246386;28;20172;-60
2023/10/07 10:40:14;;;;;;;15.38;5.20;;;;;;;;;;6246140;28;20049;-61
2023/10/07 10:43:23;;;;;;;12.23;4.78;;;;;;;;;;6245255;28;20095;-62
2023/10/07 10:46:27;;;;;;;12.27;5.05;;;;;;;;;;6246549;28;20041;-61
2023/10/07 10:49:30;;;;;;;16.15;5.35;;;;;;;;;;6244619;28;20049;-61
2023/10/07 10:52:32;;;;;;;12.00;4.55;;;;;;;;;;6244907;28;20060;-61
2023/10/07 10:55:34;;;;;;;11.65;5.07;;;;;;;;;;6249191;28;20045;-60
2023/10/07 10:58:37;;;;;;;13.25;5.10;;;;;;;;;;6245902;28;20100;-61
2023/10/07 11:01:38;;;;;;;13.68;4.90;;;;;;;;;;6244058;28;20622;-61
2023/10/07 11:04:39;;;;;;;13.37;5.07;;;;;;;;;;6244637;28;20119;-61
2023/10/07 11:07:40;;;;;;;11.10;4.70;;;;;;;;;;6245431;28;20412;-61
2023/10/07 11:10:42;;;;;;;14.57;5.35;;;;;;;;;;6245019;28;20049;-61
2023/10/07 11:13:54;;;;;;;13.82;5.15;;;;;;;;;;6259353;28;20450;-61
2023/10/07 11:16:57;;;;;;;12.50;5.57;;;;;;;;;;6256783;28;20056;-61
2023/10/07 11:20:02;;;;;;;16.20;5.10;;;;;;;;;;6252092;28;20063;-62
2023/10/07 11:23:06;;;;;;;15.02;5.90;;;;;;;;;;6245319;28;20150;-61
2023/10/07 11:26:09;;;;;;;13.18;5.63;;;;;;;;;;6247201;28;20159;-60
2023/10/07 11:29:15;;;;;;;12.00;5.32;;;;;;;;;;6244848;28;20045;-60
2023/10/07 11:32:16;;;;;;;15.10;5.60;;;;;;;;;;6244788;28;20056;-60
2023/10/07 11:35:27;;;;;;;14.67;5.77;;;;;;;;;;6244566;28;20045;-60
2023/10/07 11:38:29;;;;;;;16.27;5.60;;;;;;;;;;6244094;28;20055;-60
2023/10/07 11:41:31;;;;;;;13.98;5.40;;;;;;;;;;6241945;28;20081;-60
2023/10/07 11:44:31;;;;;;;11.27;5.00;;;;;;;;;;6243370;28;20037;-60
2023/10/07 11:47:33;;;;;;;14.47;5.70;;;;;;;;;;6243583;28;20053;-60
2023/10/07 11:50:38;;;;;;;11.52;5.15;;;;;;;;;;6243417;28;20053;-61
2023/10/07 11:53:41;;;;;;;13.45;5.53;;;;;;;;;;6243018;28;20053;-60
2023/10/07 11:56:43;;;;;;;13.95;5.15;;;;;;;;;;6243724;28;20115;-60
2023/10/07 11:59:44;;;;;;;14.40;5.43;;;;;;;;;;6243726;28;20299;-61
2023/10/07 12:02:45;;;;;;;13.15;5.00;;;;;;;;;;6243960;28;20058;-61
2023/10/07 12:05:46;;;;;;;15.53;5.23;;;;;;;;;;6243405;28;20063;-61
2023/10/07 12:08:47;;;;;;;14.10;5.72;;;;;;;;;;6244602;28;20469;-61
2023/10/07 12:11:49;;;;;;;16.20;5.57;;;;;;;;;;6245095;28;20048;-61
2023/10/07 12:14:50;;;;;;;13.77;4.47;;;;;;;;;;6248687;28;20137;-61
2023/10/07 12:17:51;;;;;;;12.07;4.97;;;;;;;;;;6247857;28;20404;-60
2023/10/07 12:20:56;;;;;;;17.48;5.10;;;;;;;;;;6257340;28;20059;-61
2023/10/07 12:23:56;;;;;;;13.77;4.82;;;;;;;;;;6267748;28;20525;-62
2023/10/07 12:26:57;;;;;;;13.07;4.93;;;;;;;;;;6266680;28;20052;-61
2023/10/07 12:29:57;;;;;;;11.27;4.47;;;;;;;;;;6261531;28;20092;-59
2023/10/07 12:32:58;;;;;;;12.53;5.27;;;;;;;;;;6267473;28;20060;-61
2023/10/07 12:35:59;;;;;;;17.03;5.53;;;;;;;;;;6266816;28;20099;-60
2023/10/07 12:39:01;;;;;;;12.70;5.20;;;;;;;;;;6265885;28;20484;-60
2023/10/07 12:42:01;;;;;;;10.77;4.85;;;;;;;;;;6268149;28;20434;-59
2023/10/07 12:45:04;;;;;;;11.10;4.90;;;;;;;;;;6256306;28;20073;-60
2023/10/07 12:48:06;;;;;;;12.77;4.70;;;;;;;;;;6263624;28;20282;-61
2023/10/07 12:51:08;;;;;;;17.55;5.40;;;;;;;;;;6266544;28;20478;-61
2023/10/07 12:54:09;;;;;;;15.23;5.28;;;;;;;;;;6252688;28;20118;-62
2023/10/07 12:57:10;;;;;;;10.80;4.27;;;;;;;;;;6254682;28;20037;-62
2023/10/07 13:00:29;;;;;;;13.67;4.90;;;;;;;;;;6262589;28;20037;-59
2023/10/07 13:03:30;;;;;;;11.25;4.13;;;;;;;;;;6262993;28;20139;-64
2023/10/07 13:06:30;;;;;;;15.33;4.83;;;;;;;;;;6266995;28;20090;-62
2023/10/07 13:09:31;;;;;;;11.30;4.20;;;;;;;;;;6265285;28;20049;-65
2023/10/07 13:12:34;;;;;;;11.90;4.83;;;;;;;;;;6264455;28;20511;-63
2023/10/07 13:15:35;;;;;;;12.02;4.47;;;;;;;;;;6262591;28;20057;-63
2023/10/07 13:18:36;;;;;;;13.52;4.57;;;;;;;;;;6263887;28;20455;-65
2023/10/07 13:21:37;;;;;;;15.88;4.65;;;;;;;;;;6246526;28;20561;-62
2023/10/07 13:24:38;;;;;;;12.33;5.50;;;;;;;;;;6260126;28;20559;-67
2023/10/07 13:27:40;;;;;;;13.83;4.90;;;;;;;;;;6265456;28;20075;-66
2023/10/07 13:30:42;;;;;;;14.10;4.90;;;;;;;;;;6257644;28;20500;-65
2023/10/07 13:33:43;;;;;;;;;;;;;;;;;;6266186;28;20049;-65
2023/10/07 13:36:45;;;;;;;12.55;4.88;;;;;;;;;;6265874;28;20390;-64
2023/10/07 13:39:45;;;;;;;12.13;4.97;;;;;;;;;;6264644;28;20055;-69
2023/10/07 13:42:49;;;;;;;10.95;4.53;;;;;;;;;;6265717;28;20045;-65
2023/10/07 13:45:51;;;;;;;10.38;4.20;;;;;;;;;;6265203;28;20364;-64
2023/10/07 13:48:52;;;;;;;11.68;4.93;;;;;;;;;;6258644;28;20067;-68
2023/10/07 13:51:56;;;;;;;13.13;4.50;;;;;;;;;;6265642;28;20049;-67
2023/10/07 13:58:17;;;;;;;14.75;4.60;;;;;;;;;;6266098;28;20049;-68
2023/10/07 14:01:17;;;;;;;13.10;5.32;;;;;;;;;;6264631;28;20060;-67
2023/10/07 14:04:19;;;;;;;10.70;4.55;;;;;;;;;;6264290;28;20056;-67
2023/10/07 14:07:19;;;;;;;10.77;4.60;;;;;;;;;;6262539;28;20456;-67
2023/10/07 14:10:23;;;;;;;10.05;4.30;;;;;;;;;;6249800;28;20044;-67
2023/10/07 14:13:24;;;;;;;11.40;4.85;;;;;;;;;;6258053;28;20067;-67
2023/10/07 14:16:26;;;;;;;11.13;4.38;;;;;;;;;;6262619;28;20045;-63
2023/10/07 14:19:28;;;;;;;12.50;5.28;;;;;;;;;;6254539;28;20447;-66
2023/10/07 14:22:28;;;;;;;12.90;5.15;;;;;;;;;;6256934;28;20053;-64
2023/10/07 14:25:29;;;;;;;13.20;5.07;;;;;;;;;;6260105;28;20045;-68
2023/10/07 14:28:30;;;;;;;12.40;5.35;;;;;;;;;;6255605;28;20040;-66
2023/10/07 14:31:32;;;;;;;11.27;5.10;;;;;;;;;;6261573;28;20079;-68
2023/10/07 14:34:33;;;;;;;10.85;5.18;;;;;;;;;;6261094;28;20047;-67
2023/10/07 14:37:34;;;;;;;12.20;4.75;;;;;;;;;;6256746;28;20041;-68
2023/10/07 14:40:36;;;;;;;12.23;5.00;;;;;;;;;;6264159;28;20106;-68
2023/10/07 14:43:37;;;;;;;13.05;4.97;;;;;;;;;;6253799;28;20520;-67
2023/10/07 14:46:41;;;;;;;11.02;4.78;;;;;;;;;;6263480;28;20152;-66
2023/10/07 14:49:43;;;;;;;14.05;4.53;;;;;;;;;;6261835;28;20080;-66
2023/10/07 14:52:48;;;;;;;11.27;5.10;;;;;;;;;;6254285;28;20067;-65
2023/10/07 14:55:49;;;;;;;14.05;4.57;;;;;;;;;;6257743;28;20087;-63
2023/10/07 14:58:50;;;;;;;;;;;;;;;;;;6259575;28;20143;-65
2023/10/07 15:01:51;;;;;;;14.13;4.68;;;;;;;;;;6251066;28;19931;-68
2023/10/07 15:04:52;;;;;;;10.95;4.70;;;;;;;;;;6258653;28;20040;-67
2023/10/07 15:07:52;;;;;;;12.77;4.88;;;;;;;;;;6257488;28;20392;-66
2023/10/07 15:10:53;;;;;;;11.30;4.78;;;;;;;;;;6258357;28;20072;-67
2023/10/07 15:13:54;;;;;;;11.15;4.68;;;;;;;;;;6256221;28;20053;-64
2023/10/07 15:16:54;;;;;;;11.55;4.75;;;;;;;;;;6260549;28;20049;-65
2023/10/07 15:19:55;;;;;;;10.75;4.45;;;;;;;;;;6266132;28;20048;-67
2023/10/07 15:22:55;;;;;;;12.48;4.93;;;;;;;;;;6259471;28;20049;-65
2023/10/07 15:25:57;;;;;;;9.75;4.35;;;;;;;;;;6258312;28;20061;-64
2023/10/07 15:28:58;;;;;;;11.93;4.65;;;;;;;;;;6261388;28;20040;-67
2023/10/07 15:31:59;;;;;;;11.88;4.65;;;;;;;;;;6257305;28;20060;-67
2023/10/07 15:35:00;;;;;;;12.50;5.05;;;;;;;;;;6256489;28;20127;-67
2023/10/07 15:38:01;;;;;;;11.48;4.25;;;;;;;;;;6259243;28;20419;-61
2023/10/07 15:41:07;;;;;;;12.43;4.93;;;;;;;;;;6251657;28;20126;-68
2023/10/07 15:44:07;;;;;;;9.73;4.25;;;;;;;;;;6262151;28;20040;-67
2023/10/07 15:47:09;;;;;;;10.60;4.28;;;;;;;;;;6263082;28;20098;-68
2023/10/07 15:50:09;;;;;;;15.60;4.53;;;;;;;;;;6264475;28;20053;-69
2023/10/07 15:53:10;;;;;;;10.82;5.00;;;;;;;;;;6258337;28;20130;-69
2023/10/07 15:56:12;;;;;;;12.18;4.63;;;;;;;;;;6263850;28;20094;-64
2023/10/07 15:59:15;;;;;;;13.07;4.88;;;;;;;;;;6259996;28;20048;-60
2023/10/07 16:02:16;;;;;;;12.43;4.88;;;;;;;;;;6259427;28;20436;-66
2023/10/07 16:05:16;;;;;;;13.30;5.07;;;;;;;;;;6253562;28;20132;-62
2023/10/07 16:08:17;;;;;;;12.40;5.23;;;;;;;;;;6258021;28;20457;-64
2023/10/07 16:11:18;;;;;;;9.20;4.57;;;;;;;;;;6263873;28;20459;-64
2023/10/07 16:14:20;;;;;;;9.10;4.00;;;;;;;;;;6255848;28;20905;-63
2023/10/07 16:17:22;;;;;;;11.57;4.38;;;;;;;;;;6251803;28;20161;-65
2023/10/07 16:20:25;;;;;;;12.45;4.60;;;;;;;;;;6261032;28;20037;-66
2023/10/07 16:23:28;;;;;;;11.10;4.38;;;;;;;;;;6249083;28;20107;-67
2023/10/07 16:26:29;;;;;;;11.70;4.35;;;;;;;;;;6257992;28;20488;-65
2023/10/07 16:29:29;;;;;;;11.98;4.95;;;;;;;;;;6260283;28;20088;-67
2023/10/07 16:32:30;;;;;;;10.77;4.25;;;;;;;;;;6259284;28;20049;-64
2023/10/07 16:35:34;;;;;;;11.40;4.43;;;;;;;;;;6260824;28;20398;-66
2023/10/07 16:38:41;;;;;;;11.63;4.68;;;;;;;;;;6258985;28;20133;-65
2023/10/07 16:41:44;;;;;;;12.73;5.28;;;;;;;;;;6260083;28;20065;-66
2023/10/07 16:44:44;;;;;;;;;;;;;;;;;;6256147;28;20049;-65
2023/10/07 16:47:45;;;;;;;12.23;5.30;;;;;;;;;;6258935;28;20264;-67
2023/10/07 16:50:56;;;;;;;15.73;5.20;;;;;;;;;;6254126;28;20048;-63
2023/10/07 16:53:57;;;;;;;11.43;4.50;;;;;;;;;;6254068;28;20416;-65
2023/10/07 16:56:58;;;;;;;10.43;4.40;;;;;;;;;;6249690;28;20049;-63
2023/10/07 16:59:59;;;;;;;15.23;5.13;;;;;;;;;;6253769;28;20077;-64
2023/10/07 17:02:59;;;;;;;12.32;4.68;;;;;;;;;;6249259;28;20098;-65
2023/10/07 17:06:02;;;;;;;11.85;4.38;;;;;;;;;;6250655;28;20139;-64
2023/10/07 17:09:03;;;;;;;10.20;4.07;;;;;;;;;;6250980;28;20628;-65
2023/10/07 17:12:05;;;;;;;10.35;4.65;;;;;;;;;;6247929;28;20044;-64
2023/10/07 17:15:06;;;;;;;14.63;4.60;;;;;;;;;;6252732;28;20056;-65
2023/10/07 17:18:08;;;;;;;10.85;4.70;;;;;;;;;;6252606;28;20462;-64
2023/10/07 17:21:11;;;;;;;12.57;4.63;;;;;;;;;;6251953;28;20049;-59
2023/10/07 17:24:11;;;;;;;;;;;;;;;;;;6249239;28;20045;-62
2023/10/07 17:27:12;;;;;;;17.45;4.35;;;;;;;;;;6252337;28;19955;-60
2023/10/07 17:30:15;;;;;;;10.60;3.92;;;;;;;;;;6251147;28;20176;-60
2023/10/07 17:33:16;;;;;;;13.35;4.80;;;;;;;;;;6249508;28;20053;-60
2023/10/07 17:36:16;;;;;;;12.88;5.05;;;;;;;;;;6252504;28;20183;-60
2023/10/07 17:39:17;;;;;;;11.85;4.80;;;;;;;;;;6252848;28;20049;-60
2023/10/07 17:42:17;;;;;;;11.20;4.28;;;;;;;;;;6270239;28;20068;-63
2023/10/07 17:45:18;;;;;;;12.75;4.45;;;;;;;;;;6257061;28;20064;-65
2023/10/07 17:48:19;;;;;;;10.60;4.43;;;;;;;;;;6257558;28;20443;-69
2023/10/07 17:51:20;;;;;;;10.00;4.00;;;;;;;;;;6255927;28;20472;-67
2023/10/07 17:54:21;;;;;;;;;;;;;;;;;;6258548;28;20057;-66
2023/10/07 17:57:21;;;;;;;12.35;4.40;;;;;;;;;;6257281;28;19925;-63
2023/10/07 18:00:31;;;;;;;12.00;4.47;;;;;;;;;;6255555;28;20147;-65
2023/10/07 18:03:32;;;;;;;15.15;4.88;;;;;;;;;;6257327;28;20045;-63
2023/10/07 18:06:34;;;;;;;9.45;4.30;;;;;;;;;;6258297;28;20142;-64
2023/10/07 18:09:35;;;;;;;12.68;5.30;;;;;;;;;;6254739;28;20143;-63
2023/10/07 18:12:35;;;;;;;11.55;4.57;;;;;;;;;;6253368;28;20052;-66
2023/10/07 18:15:40;;;;;;;11.98;4.85;;;;;;;;;;6256859;28;20055;-64
2023/10/07 18:18:41;;;;;;;12.02;4.88;;;;;;;;;;6257517;28;20479;-66
2023/10/07 18:21:42;;;;;;;11.93;4.95;;;;;;;;;;6250997;28;20056;-64
2023/10/07 18:24:43;;;;;;;15.30;5.45;;;;;;;;;;6254187;28;20053;-63
2023/10/07 18:27:43;;;;;;;10.63;4.90;;;;;;;;;;6257517;28;20049;-63
2023/10/07 18:30:44;;;;;;;12.93;5.45;;;;;;;;;;6254618;28;20049;-63
2023/10/07 18:33:45;;;;;;;10.10;4.95;;;;;;;;;;6255674;28;20494;-64
2023/10/07 18:36:46;;;;;;;11.70;5.05;;;;;;;;;;6253627;28;20784;-65
2023/10/07 18:39:46;;;;;;;12.27;4.95;;;;;;;;;;6254583;28;20049;-66
2023/10/07 18:42:47;;;;;;;15.27;5.43;;;;;;;;;;6252271;28;21199;-68
2023/10/07 18:45:54;;;;;;;11.88;5.43;;;;;;;;;;6250407;28;20147;-63
2023/10/07 18:48:55;;;;;;;12.05;5.47;;;;;;;;;;6253405;28;20346;-64
2023/10/07 18:51:56;;;;;;;10.80;4.85;;;;;;;;;;6252978;28;20063;-66
2023/10/07 18:54:57;;;;;;;13.25;5.18;;;;;;;;;;6255776;28;20041;-62